LLRB weather

Rambam Heliport
Haifa, Haifa District, Israel

Public forecast

Using degrees Celsius for public forecast. Weather courtesy of forecast.io.

METAR (pilot weather report)

Closest report is Haifa International Airport, 3.3 nm (6.1 km) ESE. Retrieved 2019/08/21 15:50 UTC (1 hour ago):

LLHA 211550Z 32007KT CAVOK 29/21 Q1010

TAF (pilot weather forecast)

Closest forecast is Haifa International Airport, 3.3 nm (6.1 km) ESE. Retrieved 2019/08/21 12:00 UTC (5 hours ago):

TAF LLHA 211104Z 2112/2212 32010KT 9999 FEW030 BECMG 2116/2118 VRB04KT FEW025 PROB40 2122/2205 SCT020 BECMG 2207/2209 30010KT FEW030 TX32/2112Z TN25/2203Z